createdAt,value
2022-10-23T00:00:44.955Z,98567.81
2022-10-23T00:01:46.632Z,98566.69
2022-10-23T00:02:54.502Z,98563.25
2022-10-23T00:04:05.092Z,98564.38
2022-10-23T00:05:06.749Z,98560.19
2022-10-23T00:06:08.646Z,98562.06
2022-10-23T00:07:10.155Z,98565.06
2022-10-23T00:08:11.595Z,98568.06
2022-10-23T00:09:16.874Z,98572.16
2022-10-23T00:10:19.722Z,98568.75
2022-10-23T00:11:26.305Z,98569.88
2022-10-23T00:12:28.352Z,98566.66
2022-10-23T00:13:29.763Z,98568.19
2022-10-23T00:14:31.402Z,98566.31
2022-10-23T00:15:35.645Z,98562.56
2022-10-23T00:16:37.362Z,98575.34
2022-10-23T00:17:39.365Z,98567.84
2022-10-23T00:18:41.711Z,98567.84
2022-10-23T00:19:43.189Z,98568.59
2022-10-23T00:20:44.642Z,98560.69
2022-10-23T00:21:46.093Z,98563.69
2022-10-23T00:22:47.802Z,98562.91
2022-10-23T00:23:49.375Z,98567.41
2022-10-23T00:24:51.261Z,98562.09
2022-10-23T00:25:52.752Z,98564.69
2022-10-23T00:26:54.189Z,98561.63
2022-10-23T00:27:55.623Z,98562.72
2022-10-23T00:28:57.125Z,98563.09
2022-10-23T00:29:59.182Z,98563.47
2022-10-23T00:31:07.014Z,98559.25
2022-10-23T00:32:08.522Z,98560.00
2022-10-23T00:33:10.500Z,98556.53
2022-10-23T00:34:12.388Z,98556.09
2022-10-23T00:35:13.862Z,98551.94
2022-10-23T00:36:17.650Z,98554.19
2022-10-23T00:37:19.354Z,98550.03
2022-10-23T00:38:20.806Z,98549.22
2022-10-23T00:39:22.329Z,98547.38
2022-10-23T00:40:23.921Z,98548.47
2022-10-23T00:41:32.288Z,98554.88
2022-10-23T00:42:33.838Z,98551.06
2022-10-23T00:43:55.371Z,98546.13
2022-10-23T00:45:08.964Z,98546.47
2022-10-23T00:46:10.397Z,98542.31
2022-10-23T00:47:13.915Z,98539.25
2022-10-23T00:48:16.441Z,98542.66
2022-10-23T00:49:18.244Z,98539.25
2022-10-23T00:50:23.202Z,98537.38
2022-10-23T00:51:27.786Z,98539.69
2022-10-23T00:52:29.897Z,98537.03
2022-10-23T00:53:31.350Z,98535.09
2022-10-23T00:54:43.648Z,98532.44
2022-10-23T00:55:47.796Z,98529.41
2022-10-23T00:56:50.539Z,98530.50
2022-10-23T00:57:52.629Z,98527.09
2022-10-23T00:58:54.097Z,98536.56
2022-10-23T00:59:55.983Z,98533.16
2022-10-23T01:00:57.561Z,98529.75
2022-10-23T01:01:59.907Z,98540.31
2022-10-23T01:03:01.592Z,98534.25
2022-10-23T01:04:05.839Z,98530.78
2022-10-23T01:05:09.003Z,98531.16
2022-10-23T01:06:30.375Z,98529.84
2022-10-23T01:07:41.517Z,98531.28
2022-10-23T01:08:53.434Z,98527.72
2022-10-23T01:10:22.209Z,98537.53
2022-10-23T01:11:34.237Z,98528.38
2022-10-23T01:13:05.557Z,98517.66
2022-10-23T01:14:25.667Z,98515.31
2022-10-23T01:15:35.220Z,98523.03
2022-10-23T01:16:41.912Z,98520.81
2022-10-23T01:18:06.026Z,98522.81
2022-10-23T01:19:37.211Z,98521.03
2022-10-23T01:20:50.612Z,98523.72
2022-10-23T01:22:05.677Z,98514.72
2022-10-23T01:23:12.960Z,98518.16
2022-10-23T01:24:32.951Z,98514.41
2022-10-23T01:25:53.138Z,98508.09
2022-10-23T01:26:58.914Z,98511.13
2022-10-23T01:28:04.831Z,98505.94
2022-10-23T01:29:40.119Z,98505.84
2022-10-23T01:30:44.596Z,98503.28
2022-10-23T01:32:04.147Z,98496.50
2022-10-23T01:33:10.923Z,98494.63
2022-10-23T01:34:18.174Z,98502.94
2022-10-23T01:35:24.840Z,98502.94
2022-10-23T01:36:28.866Z,98498.84
2022-10-23T01:37:40.019Z,98503.34
2022-10-23T01:38:56.905Z,98498.06
2022-10-23T01:40:04.197Z,98499.25
2022-10-23T01:41:21.053Z,98500.44
2022-10-23T01:42:32.427Z,98495.53
2022-10-23T01:43:56.546Z,98497.06
2022-10-23T01:45:03.699Z,98500.06
2022-10-23T01:46:09.158Z,98492.91
2022-10-23T01:47:13.224Z,98496.66
2022-10-23T01:48:19.202Z,98501.53
2022-10-23T01:49:23.021Z,98492.84
2022-10-23T01:50:26.363Z,98493.19
2022-10-23T01:51:31.362Z,98491.69
2022-10-23T01:52:32.902Z,98501.88
2022-10-23T01:53:38.494Z,98492.81
2022-10-23T01:54:43.342Z,98490.56
2022-10-23T01:55:46.965Z,98490.16
2022-10-23T01:56:51.332Z,98485.63
2022-10-23T01:57:53.754Z,98484.91
2022-10-23T01:58:58.327Z,98478.53
2022-10-23T02:00:15.856Z,98485.28
2022-10-23T02:01:22.029Z,98477.72
2022-10-23T02:02:24.943Z,98485.28
2022-10-23T02:03:29.160Z,98476.53
2022-10-23T02:04:42.321Z,98485.97
2022-10-23T02:05:44.780Z,98478.41
2022-10-23T02:06:46.316Z,98479.19
2022-10-23T02:07:48.261Z,98481.06
2022-10-23T02:08:49.948Z,98483.28
2022-10-23T02:09:51.945Z,98484.75
2022-10-23T02:11:11.185Z,98481.34
2022-10-23T02:12:19.266Z,98477.59
2022-10-23T02:13:33.810Z,98477.59
2022-10-23T02:14:50.790Z,98466.63
2022-10-23T02:16:03.916Z,98469.28
2022-10-23T02:17:16.735Z,98464.69
2022-10-23T02:18:27.247Z,98466.22
2022-10-23T02:19:42.780Z,98458.28
2022-10-23T02:20:52.851Z,98460.16
2022-10-23T02:22:00.147Z,98457.53
2022-10-23T02:23:14.478Z,98456.41
2022-10-23T02:24:27.787Z,98460.53
2022-10-23T02:25:52.394Z,98465.38
2022-10-23T02:26:57.625Z,98457.47
2022-10-23T02:28:05.102Z,98463.75
2022-10-23T02:29:18.293Z,98464.16
2022-10-23T02:30:20.874Z,98461.09
2022-10-23T02:31:23.748Z,98453.53
2022-10-23T02:32:27.512Z,98459.56
2022-10-23T02:33:31.336Z,98460.75
2022-10-23T02:34:33.042Z,98464.16
2022-10-23T02:35:34.894Z,98463.78
2022-10-23T02:36:36.695Z,98455.88
2022-10-23T02:37:38.176Z,98460.75
2022-10-23T02:38:42.516Z,98465.25
2022-10-23T02:39:44.470Z,98460.34
2022-10-23T02:40:47.641Z,98453.53
2022-10-23T02:42:12.356Z,98450.50
2022-10-23T02:43:27.066Z,98450.13
2022-10-23T02:44:43.737Z,98450.13
2022-10-23T02:46:00.140Z,98455.41
2022-10-23T02:47:30.640Z,98450.88
2022-10-23T02:48:44.679Z,98458.75
2022-10-23T02:50:09.619Z,98456.44
2022-10-23T02:51:19.382Z,98460.13
2022-10-23T02:52:32.879Z,98463.19
2022-10-23T02:53:54.591Z,98467.72
2022-10-23T02:55:35.059Z,98460.09
2022-10-23T02:56:44.390Z,98469.09
2022-10-23T02:58:04.176Z,98463.78
2022-10-23T02:59:21.408Z,98473.56
2022-10-23T03:00:24.060Z,98471.63
2022-10-23T03:01:51.043Z,98465.56
2022-10-23T03:03:02.390Z,98459.53
2022-10-23T03:04:06.893Z,98460.31
2022-10-23T03:05:14.374Z,98466.34
2022-10-23T03:06:16.390Z,98458.78
2022-10-23T03:07:19.610Z,98461.81
2022-10-23T03:08:21.168Z,98461.00
2022-10-23T03:09:22.599Z,98460.59
2022-10-23T03:10:24.812Z,98466.19
2022-10-23T03:11:26.351Z,98464.25
2022-10-23T03:12:27.781Z,98453.72
2022-10-23T03:13:29.165Z,98449.53
2022-10-23T03:14:30.573Z,98451.41
2022-10-23T03:15:32.647Z,98450.25
2022-10-23T03:16:34.075Z,98448.38
2022-10-23T03:17:35.473Z,98448.28
2022-10-23T03:18:36.908Z,98447.97
2022-10-23T03:19:38.333Z,98455.09
2022-10-23T03:20:40.152Z,98455.28
2022-10-23T03:21:41.532Z,98464.72
2022-10-23T03:22:43.263Z,98462.84
2022-10-23T03:23:45.246Z,98457.50
2022-10-23T03:24:46.671Z,98464.66
2022-10-23T03:25:48.464Z,98457.41
2022-10-23T03:26:49.849Z,98461.09
2022-10-23T03:27:51.256Z,98454.84
2022-10-23T03:28:52.687Z,98454.50
2022-10-23T03:29:54.513Z,98451.09
2022-10-23T03:30:56.324Z,98446.53
2022-10-23T03:31:57.848Z,98446.94
2022-10-23T03:32:59.289Z,98445.91
2022-10-23T03:34:02.250Z,98446.66
2022-10-23T03:35:06.263Z,98446.28
2022-10-23T03:36:08.074Z,98444.78
2022-10-23T03:37:09.736Z,98448.94
2022-10-23T03:38:11.158Z,98446.00
2022-10-23T03:39:12.725Z,98449.03
2022-10-23T03:40:14.310Z,98443.75
2022-10-23T03:41:15.815Z,98447.16
2022-10-23T03:42:17.633Z,98442.25
2022-10-23T03:43:19.909Z,98443.34
2022-10-23T03:44:21.346Z,98437.66
2022-10-23T03:45:23.198Z,98435.00
2022-10-23T03:46:24.802Z,98435.44
2022-10-23T03:47:26.224Z,98436.56
2022-10-23T03:48:27.935Z,98436.97
2022-10-23T03:49:29.369Z,98441.13
2022-10-23T03:50:31.165Z,98438.16
2022-10-23T03:51:32.583Z,98441.13
2022-10-23T03:52:34.022Z,98440.38
2022-10-23T03:53:35.562Z,98436.97
2022-10-23T03:54:37.389Z,98446.41
2022-10-23T03:55:38.818Z,98439.97
2022-10-23T03:56:40.204Z,98448.94
2022-10-23T03:57:41.644Z,98444.78
2022-10-23T03:58:43.112Z,98441.00
2022-10-23T03:59:44.826Z,98436.06
2022-10-23T04:00:46.215Z,98435.66
2022-10-23T04:01:47.817Z,98442.72
2022-10-23T04:02:49.428Z,98435.50
2022-10-23T04:03:50.926Z,98445.63
2022-10-23T04:04:52.706Z,98440.63
2022-10-23T04:05:54.092Z,98440.22
2022-10-23T04:06:55.508Z,98439.09
2022-10-23T04:07:57.484Z,98444.03
2022-10-23T04:08:58.977Z,98445.91
2022-10-23T04:10:00.712Z,98444.50
2022-10-23T04:11:02.153Z,98447.16
2022-10-23T04:12:03.727Z,98440.75
2022-10-23T04:13:05.181Z,98446.03
2022-10-23T04:14:06.614Z,98443.41
2022-10-23T04:15:08.806Z,98441.53
2022-10-23T04:16:10.233Z,98451.72
2022-10-23T04:17:11.606Z,98449.84
2022-10-23T04:18:13.030Z,98443.81
2022-10-23T04:19:14.795Z,98448.75
2022-10-23T04:20:16.756Z,98445.78
2022-10-23T04:21:18.286Z,98445.44
2022-10-23T04:22:19.693Z,98440.56
2022-10-23T04:23:21.097Z,98441.28
2022-10-23T04:24:24.739Z,98439.72
2022-10-23T04:25:26.190Z,98450.22
2022-10-23T04:26:27.568Z,98454.38
2022-10-23T04:27:28.991Z,98451.38
2022-10-23T04:28:30.549Z,98438.56
2022-10-23T04:29:33.121Z,98445.28
2022-10-23T04:30:35.145Z,98445.28
2022-10-23T04:31:36.776Z,98433.97
2022-10-23T04:32:38.472Z,98431.34
2022-10-23T04:33:39.988Z,98433.22
2022-10-23T04:34:41.546Z,98432.81
2022-10-23T04:35:43.126Z,98431.59
2022-10-23T04:36:44.586Z,98427.44
2022-10-23T04:37:46.251Z,98429.72
2022-10-23T04:38:48.211Z,98432.72
2022-10-23T04:39:49.687Z,98431.19
2022-10-23T04:40:51.207Z,98432.38
2022-10-23T04:41:53.085Z,98432.38
2022-10-23T04:42:54.822Z,98435.75
2022-10-23T04:43:56.544Z,98438.75
2022-10-23T04:44:57.968Z,98432.72
2022-10-23T04:46:00.566Z,98427.88
2022-10-23T04:47:02.003Z,98432.03
2022-10-23T04:48:03.974Z,98428.66
2022-10-23T04:49:05.460Z,98428.28
2022-10-23T04:50:07.202Z,98425.66
2022-10-23T04:51:10.510Z,98424.91
2022-10-23T04:52:11.920Z,98433.56
2022-10-23T04:53:13.329Z,98428.66
2022-10-23T04:54:15.271Z,98432.44
2022-10-23T04:55:16.752Z,98430.31
2022-10-23T04:56:18.392Z,98425.03
2022-10-23T04:57:19.835Z,98434.44
2022-10-23T04:58:22.125Z,98436.41
2022-10-23T04:59:23.881Z,98428.50
2022-10-23T05:00:25.354Z,98438.69
2022-10-23T05:01:26.977Z,98432.66
2022-10-23T05:02:28.474Z,98431.91
2022-10-23T05:03:29.926Z,98439.81
2022-10-23T05:04:31.829Z,98437.88
2022-10-23T05:05:33.234Z,98434.06
2022-10-23T05:06:34.648Z,98437.53
2022-10-23T05:07:37.374Z,98439.72
2022-10-23T05:08:39.097Z,98433.69
2022-10-23T05:09:40.501Z,98437.88
2022-10-23T05:10:41.942Z,98440.16
2022-10-23T05:11:43.402Z,98439.03
2022-10-23T05:12:44.814Z,98434.13
2022-10-23T05:13:46.277Z,98440.91
2022-10-23T05:14:47.652Z,98440.16
2022-10-23T05:15:51.106Z,98436.75
2022-10-23T05:17:02.816Z,98443.91
2022-10-23T05:18:12.795Z,98438.63
2022-10-23T05:19:24.128Z,98428.78
2022-10-23T05:20:30.059Z,98431.41
2022-10-23T05:21:34.533Z,98422.75
2022-10-23T05:22:39.762Z,98434.06
2022-10-23T05:23:43.211Z,98431.81
2022-10-23T05:24:47.000Z,98431.81
2022-10-23T05:25:51.778Z,98434.44
2022-10-23T05:26:53.534Z,98430.72
2022-10-23T05:27:54.959Z,98437.88
2022-10-23T05:28:56.854Z,98437.03
2022-10-23T05:29:58.278Z,98437.38
2022-10-23T05:31:03.368Z,98435.44
2022-10-23T05:32:08.731Z,98429.72
2022-10-23T05:33:11.499Z,98437.63
2022-10-23T05:34:15.571Z,98441.47
2022-10-23T05:35:21.131Z,98438.47
2022-10-23T05:36:24.620Z,98439.59
2022-10-23T05:37:26.760Z,98441.47
2022-10-23T05:38:32.575Z,98442.63
2022-10-23T05:39:34.353Z,98441.94
2022-10-23T05:40:35.981Z,98447.56
2022-10-23T05:41:37.561Z,98449.03
2022-10-23T05:42:40.938Z,98450.13
2022-10-23T05:43:43.659Z,98447.50
2022-10-23T05:44:45.100Z,98452.78
2022-10-23T05:45:46.597Z,98444.88
2022-10-23T05:46:48.039Z,98437.72
2022-10-23T05:47:49.516Z,98433.22
2022-10-23T05:48:51.883Z,98425.31
2022-10-23T05:49:53.414Z,98413.31
2022-10-23T05:50:54.836Z,98416.72
2022-10-23T05:51:56.319Z,98418.16
2022-10-23T05:52:57.780Z,98422.31
2022-10-23T05:53:59.264Z,98423.91
2022-10-23T05:55:00.722Z,98417.56
2022-10-23T05:56:08.579Z,98421.28
2022-10-23T05:57:10.065Z,98421.03
2022-10-23T05:58:11.871Z,98418.44
2022-10-23T05:59:13.346Z,98415.81
2022-10-23T06:00:14.981Z,98420.75
2022-10-23T06:01:18.483Z,98417.06
2022-10-23T06:02:20.236Z,98420.78
2022-10-23T06:03:21.718Z,98417.06
2022-10-23T06:04:23.174Z,98424.63
2022-10-23T06:05:24.617Z,98423.88
2022-10-23T06:06:26.159Z,98429.22
2022-10-23T06:07:31.326Z,98427.75
2022-10-23T06:08:36.112Z,98424.69
2022-10-23T06:09:37.533Z,98424.69
2022-10-23T06:10:38.954Z,98425.94
2022-10-23T06:11:40.393Z,98426.69
2022-10-23T06:12:41.885Z,98428.97
2022-10-23T06:13:45.511Z,98426.78
2022-10-23T06:14:47.288Z,98429.50
2022-10-23T06:15:49.057Z,98420.81
2022-10-23T06:16:50.532Z,98420.13
2022-10-23T06:17:51.946Z,98418.69
2022-10-23T06:18:54.376Z,98424.00
2022-10-23T06:20:00.843Z,98425.19
2022-10-23T06:21:02.591Z,98424.16
2022-10-23T06:22:05.144Z,98426.03
2022-10-23T06:23:07.670Z,98439.97
2022-10-23T06:24:10.937Z,98432.47
2022-10-23T06:25:12.361Z,98438.16
2022-10-23T06:26:16.099Z,98435.94
2022-10-23T06:27:17.599Z,98427.25
2022-10-23T06:28:20.678Z,98432.94
2022-10-23T06:29:22.602Z,98420.94
2022-10-23T06:30:24.228Z,98423.97
2022-10-23T06:31:28.170Z,98424.03
2022-10-23T06:32:32.051Z,98425.22
2022-10-23T06:33:33.588Z,98428.25
2022-10-23T06:34:35.105Z,98433.53
2022-10-23T06:35:36.540Z,98438.13
2022-10-23T06:36:38.441Z,98434.00
2022-10-23T06:37:39.971Z,98445.31
2022-10-23T06:38:41.491Z,98437.06
2022-10-23T06:39:42.925Z,98446.91
2022-10-23T06:40:46.976Z,98446.91
2022-10-23T06:41:48.352Z,98445.47
2022-10-23T06:42:49.840Z,98450.81
2022-10-23T06:43:51.839Z,98438.75
2022-10-23T06:44:53.266Z,98436.94
2022-10-23T06:45:54.731Z,98435.13
2022-10-23T06:46:56.142Z,98434.84
2022-10-23T06:47:57.923Z,98442.47
2022-10-23T06:48:59.332Z,98438.00
2022-10-23T06:50:00.853Z,98433.13
2022-10-23T06:51:07.693Z,98436.94
2022-10-23T06:52:14.441Z,98433.59
2022-10-23T06:53:30.427Z,98435.94
2022-10-23T06:54:31.864Z,98434.13
2022-10-23T06:55:33.589Z,98436.81
2022-10-23T06:56:35.198Z,98434.22
2022-10-23T06:57:36.953Z,98435.75
2022-10-23T06:58:39.437Z,98440.31
2022-10-23T06:59:40.858Z,98446.75
2022-10-23T07:00:42.406Z,98444.53
2022-10-23T07:01:44.081Z,98448.75
2022-10-23T07:02:46.449Z,98448.44
2022-10-23T07:03:48.976Z,98448.50
2022-10-23T07:04:50.478Z,98445.91
2022-10-23T07:05:51.941Z,98444.06
2022-10-23T07:06:56.688Z,98447.91
2022-10-23T07:07:58.468Z,98442.66
2022-10-23T07:09:00.003Z,98443.81
2022-10-23T07:10:01.546Z,98444.22
2022-10-23T07:11:08.985Z,98438.97
2022-10-23T07:12:10.424Z,98439.03
2022-10-23T07:13:12.447Z,98448.47
2022-10-23T07:14:13.859Z,98445.88
2022-10-23T07:15:15.876Z,98438.81
2022-10-23T07:16:20.058Z,98441.50
2022-10-23T07:17:21.482Z,98432.06
2022-10-23T07:18:23.316Z,98438.94
2022-10-23T07:19:24.878Z,98441.63
2022-10-23T07:20:26.452Z,98429.91
2022-10-23T07:21:32.984Z,98433.38
2022-10-23T07:22:34.801Z,98432.28
2022-10-23T07:23:36.614Z,98436.88
2022-10-23T07:24:38.541Z,98434.25
2022-10-23T07:25:39.970Z,98432.00
2022-10-23T07:26:41.814Z,98439.97
2022-10-23T07:27:43.793Z,98429.81
2022-10-23T07:28:47.231Z,98435.84
2022-10-23T07:29:52.496Z,98430.19
2022-10-23T07:30:58.302Z,98440.44
2022-10-23T07:32:04.464Z,98441.22
2022-10-23T07:33:06.406Z,98434.44
2022-10-23T07:34:07.906Z,98434.84
2022-10-23T07:35:11.730Z,98438.59
2022-10-23T07:36:13.282Z,98435.63
2022-10-23T07:37:14.696Z,98434.50
2022-10-23T07:38:17.494Z,98432.59
2022-10-23T07:39:18.917Z,98434.53
2022-10-23T07:40:20.479Z,98438.69
2022-10-23T07:41:21.968Z,98436.47
2022-10-23T07:42:23.556Z,98434.63
2022-10-23T07:43:26.139Z,98436.19
2022-10-23T07:44:27.942Z,98427.16
2022-10-23T07:45:29.390Z,98430.56
2022-10-23T07:46:30.898Z,98431.38
2022-10-23T07:47:32.941Z,98429.91
2022-10-23T07:48:34.400Z,98424.28
2022-10-23T07:49:35.835Z,98434.16
2022-10-23T07:50:38.631Z,98434.59
2022-10-23T07:51:40.107Z,98433.88
2022-10-23T07:52:41.950Z,98424.84
2022-10-23T07:53:43.856Z,98426.78
2022-10-23T07:54:45.291Z,98425.72
2022-10-23T07:55:54.016Z,98434.50
2022-10-23T07:56:55.454Z,98433.09
2022-10-23T07:57:56.932Z,98435.47
2022-10-23T07:58:58.361Z,98432.53
2022-10-23T07:59:59.818Z,98431.88
2022-10-23T08:01:03.271Z,98419.41
2022-10-23T08:02:04.847Z,98422.81
2022-10-23T08:03:07.027Z,98425.47
2022-10-23T08:04:10.131Z,98424.34
2022-10-23T08:05:11.588Z,98415.28
2022-10-23T08:06:13.031Z,98413.75
2022-10-23T08:07:14.807Z,98412.63
2022-10-23T08:08:16.329Z,98409.22
2022-10-23T08:09:17.784Z,98409.63
2022-10-23T08:10:19.271Z,98410.75
2022-10-23T08:11:25.857Z,98403.94
2022-10-23T08:12:27.605Z,98405.47
2022-10-23T08:13:29.108Z,98407.34
2022-10-23T08:14:30.574Z,98404.34
2022-10-23T08:15:31.991Z,98404.34
2022-10-23T08:16:35.596Z,98406.22
2022-10-23T08:17:37.107Z,98404.34
2022-10-23T08:18:39.923Z,98407.75
2022-10-23T08:19:46.310Z,98402.81
2022-10-23T08:20:48.792Z,98399.81
2022-10-23T08:21:54.580Z,98402.06
2022-10-23T08:22:56.657Z,98399.03
2022-10-23T08:23:59.939Z,98399.03
2022-10-23T08:25:01.396Z,98392.59
2022-10-23T08:26:05.378Z,98395.25
2022-10-23T08:27:07.275Z,98399.41
2022-10-23T08:28:09.452Z,98403.22
2022-10-23T08:29:10.922Z,98399.81
2022-10-23T08:30:12.542Z,98399.44
2022-10-23T08:31:22.519Z,98399.09
2022-10-23T08:32:24.086Z,98386.16
2022-10-23T08:33:25.745Z,98394.13
2022-10-23T08:34:27.379Z,98388.09
2022-10-23T08:35:28.900Z,98394.94
2022-10-23T08:36:31.099Z,98388.50
2022-10-23T08:37:32.923Z,98397.59
2022-10-23T08:38:35.536Z,98392.28
2022-10-23T08:39:39.704Z,98388.81
2022-10-23T08:40:46.881Z,98381.19
2022-10-23T08:41:51.590Z,98384.22
2022-10-23T08:43:13.044Z,98389.53
2022-10-23T08:44:26.684Z,98381.91
2022-10-23T08:45:36.694Z,98384.94
2022-10-23T08:46:44.252Z,98381.47
2022-10-23T08:47:50.990Z,98388.31
2022-10-23T08:49:02.903Z,98384.88
2022-10-23T08:50:32.307Z,98387.97
2022-10-23T08:51:41.946Z,98389.88
2022-10-23T08:52:52.335Z,98383.09
2022-10-23T08:54:02.755Z,98386.88
2022-10-23T08:55:18.905Z,98383.13
2022-10-23T08:56:20.332Z,98382.69
2022-10-23T08:57:24.171Z,98381.59
2022-10-23T08:58:49.629Z,98371.34
2022-10-23T09:00:00.667Z,98372.09
2022-10-23T09:01:21.290Z,98378.94
2022-10-23T09:02:29.135Z,98364.53
2022-10-23T09:03:30.623Z,98364.50
2022-10-23T09:04:32.583Z,98359.94
2022-10-23T09:06:03.437Z,98369.75
2022-10-23T09:07:16.088Z,98362.94
2022-10-23T09:08:48.662Z,98366.34
2022-10-23T09:10:08.979Z,98368.22
2022-10-23T09:11:19.505Z,98364.06
2022-10-23T09:12:23.088Z,98366.69
2022-10-23T09:13:40.708Z,98367.44
2022-10-23T09:14:57.255Z,98361.72
2022-10-23T09:16:10.900Z,98370.09
2022-10-23T09:17:25.362Z,98373.50
2022-10-23T09:18:26.801Z,98371.59
2022-10-23T09:19:31.246Z,98371.56
2022-10-23T09:20:37.427Z,98365.50
2022-10-23T09:21:38.872Z,98373.44
2022-10-23T09:22:42.347Z,98368.50
2022-10-23T09:23:44.081Z,98365.44
2022-10-23T09:24:45.519Z,98367.69
2022-10-23T09:25:48.631Z,98366.94
2022-10-23T09:26:53.325Z,98377.16
2022-10-23T09:28:01.569Z,98377.91
2022-10-23T09:29:19.324Z,98376.34
2022-10-23T09:30:35.322Z,98375.16
2022-10-23T09:31:48.401Z,98372.84
2022-10-23T09:32:50.151Z,98375.84
2022-10-23T09:34:00.127Z,98371.28
2022-10-23T09:35:01.903Z,98372.75
2022-10-23T09:36:08.437Z,98374.22
2022-10-23T09:37:24.221Z,98373.81
2022-10-23T09:38:33.396Z,98373.44
2022-10-23T09:39:36.663Z,98370.00
2022-10-23T09:40:43.087Z,98359.69
2022-10-23T09:41:44.835Z,98363.84
2022-10-23T09:43:01.667Z,98361.22
2022-10-23T09:44:08.785Z,98357.41
2022-10-23T09:45:30.913Z,98352.50
2022-10-23T09:46:58.820Z,98353.66
2022-10-23T09:48:19.252Z,98349.84
2022-10-23T09:49:25.492Z,98340.69
2022-10-23T09:50:26.941Z,98348.28
2022-10-23T09:51:28.449Z,98351.69
2022-10-23T09:52:36.122Z,98345.94
2022-10-23T09:53:54.955Z,98343.63
2022-10-23T09:55:00.021Z,98346.66
2022-10-23T09:56:11.876Z,98340.19
2022-10-23T09:57:38.438Z,98337.53
2022-10-23T09:58:52.420Z,98342.06
2022-10-23T09:59:56.694Z,98341.66
2022-10-23T10:00:58.301Z,98344.28
2022-10-23T10:02:04.868Z,98345.75
2022-10-23T10:03:07.575Z,98351.00
2022-10-23T10:04:09.006Z,98348.34
2022-10-23T10:05:29.902Z,98349.47
2022-10-23T10:06:33.209Z,98349.47
2022-10-23T10:07:36.806Z,98344.47
2022-10-23T10:08:49.996Z,98347.78
2022-10-23T10:09:53.699Z,98347.78
2022-10-23T10:11:00.332Z,98345.91
2022-10-23T10:12:26.678Z,98348.56
2022-10-23T10:13:34.139Z,98346.06
2022-10-23T10:15:00.241Z,98343.63
2022-10-23T10:16:24.999Z,98337.81
2022-10-23T10:17:45.372Z,98336.31
2022-10-23T10:18:56.323Z,98340.50
2022-10-23T10:20:23.674Z,98335.09
2022-10-23T10:21:30.452Z,98327.84
2022-10-23T10:22:36.208Z,98331.63
2022-10-23T10:23:50.376Z,98329.31
2022-10-23T10:25:10.041Z,98334.97
2022-10-23T10:26:25.064Z,98324.28
2022-10-23T10:27:46.330Z,98327.97
2022-10-23T10:29:14.182Z,98322.19
2022-10-23T10:30:21.655Z,98306.81
2022-10-23T10:31:53.211Z,98319.00
2022-10-23T10:32:54.847Z,98317.88
2022-10-23T10:34:21.003Z,98296.91
2022-10-23T10:35:27.918Z,98295.38
2022-10-23T10:36:32.399Z,98291.53
2022-10-23T10:38:03.632Z,98292.69
2022-10-23T10:39:30.201Z,98301.47
2022-10-23T10:40:36.102Z,98297.50
2022-10-23T10:41:50.431Z,98298.38
2022-10-23T10:43:24.574Z,98301.63
2022-10-23T10:45:07.110Z,98288.44
2022-10-23T10:46:52.874Z,98286.66
2022-10-23T10:48:15.018Z,98279.34
2022-10-23T10:49:25.297Z,98273.53
2022-10-23T10:50:37.388Z,98267.31
2022-10-23T10:52:01.340Z,98267.41
2022-10-23T10:53:21.465Z,98271.63
2022-10-23T10:54:28.916Z,98268.22
2022-10-23T10:55:35.752Z,98269.28
2022-10-23T10:56:41.670Z,98264.56
2022-10-23T10:58:03.842Z,98260.28
2022-10-23T10:59:16.087Z,98257.94
2022-10-23T11:00:19.379Z,98253.53
2022-10-23T11:01:53.068Z,98261.59
2022-10-23T11:03:05.603Z,98260.31
2022-10-23T11:04:32.754Z,98254.47
2022-10-23T11:05:41.719Z,98255.91
2022-10-23T11:06:45.252Z,98252.53
2022-10-23T11:07:55.818Z,98241.44
2022-10-23T11:09:19.299Z,98244.53
2022-10-23T11:10:21.616Z,98234.59
2022-10-23T11:11:37.627Z,98231.22
2022-10-23T11:12:40.451Z,98230.75
2022-10-23T11:13:43.570Z,98231.91
2022-10-23T11:14:45.199Z,98217.88
2022-10-23T11:15:47.375Z,98223.69
2022-10-23T11:17:04.948Z,98221.34
2022-10-23T11:18:15.914Z,98221.72
2022-10-23T11:19:34.559Z,98220.59
2022-10-23T11:20:50.982Z,98220.47
2022-10-23T11:22:46.648Z,98231.03
2022-10-23T11:24:02.295Z,98231.22
2022-10-23T11:25:18.029Z,98232.66
2022-10-23T11:26:20.336Z,98238.28
2022-10-23T11:27:39.984Z,98240.47
2022-10-23T11:28:41.605Z,98237.72
2022-10-23T11:30:01.385Z,98243.00
2022-10-23T11:31:24.489Z,98239.16
2022-10-23T11:32:38.717Z,98248.00
2022-10-23T11:33:48.945Z,98247.13
2022-10-23T11:35:31.018Z,98253.44
2022-10-23T11:36:42.187Z,98253.63
2022-10-23T11:37:44.276Z,98241.41
2022-10-23T11:38:49.619Z,98245.59
2022-10-23T11:40:09.467Z,98236.13
2022-10-23T11:41:27.054Z,98244.72
2022-10-23T11:42:40.468Z,98238.97
2022-10-23T11:43:51.770Z,98237.38
2022-10-23T11:44:53.358Z,98240.47
2022-10-23T11:45:55.103Z,98240.88
2022-10-23T11:47:05.923Z,98238.16
2022-10-23T11:48:37.065Z,98241.63
2022-10-23T11:49:38.653Z,98243.88
2022-10-23T11:50:46.389Z,98241.16
2022-10-23T11:51:49.514Z,98237.66
2022-10-23T11:53:15.599Z,98221.69
2022-10-23T11:54:17.908Z,98232.81
2022-10-23T11:55:22.953Z,98220.53
2022-10-23T11:56:27.593Z,98203.94
2022-10-23T11:57:31.639Z,98202.91
2022-10-23T11:58:50.867Z,98197.97
2022-10-23T11:59:54.710Z,98190.59
2022-10-23T12:01:01.560Z,98194.34
2022-10-23T12:02:21.484Z,98186.47
2022-10-23T12:03:29.732Z,98185.38
2022-10-23T12:04:46.291Z,98193.94
2022-10-23T12:07:14.480Z,98187.47
2022-10-23T12:08:26.870Z,98183.50
2022-10-23T12:09:52.171Z,98175.41
2022-10-23T12:10:55.659Z,98171.06
2022-10-23T12:12:17.329Z,98166.41
2022-10-23T12:13:39.810Z,98164.63
2022-10-23T12:14:51.547Z,98169.81
2022-10-23T12:15:58.436Z,98174.75
2022-10-23T12:17:03.726Z,98184.56
2022-10-23T12:18:14.815Z,98181.19
2022-10-23T12:19:22.418Z,98183.53
2022-10-23T12:20:24.208Z,98176.19
2022-10-23T12:21:28.634Z,98166.66
2022-10-23T12:22:43.025Z,98164.72
2022-10-23T12:24:08.684Z,98168.16
2022-10-23T12:25:16.696Z,98162.41
2022-10-23T12:26:36.766Z,98156.28
2022-10-23T12:28:06.012Z,98159.72
2022-10-23T12:29:10.808Z,98161.63
2022-10-23T12:30:24.831Z,98163.38
2022-10-23T12:31:47.094Z,98171.06
2022-10-23T12:33:19.985Z,98182.09
2022-10-23T12:34:46.489Z,98180.66
2022-10-23T12:35:48.922Z,98173.47
2022-10-23T12:36:59.633Z,98171.88
2022-10-23T12:38:15.491Z,98169.88
2022-10-23T12:39:26.086Z,98171.38
2022-10-23T12:40:30.166Z,98173.41
2022-10-23T12:41:34.865Z,98173.06
2022-10-23T12:42:37.667Z,98165.38
2022-10-23T12:43:41.389Z,98164.22
2022-10-23T12:44:43.117Z,98150.09
2022-10-23T12:45:45.133Z,98155.44
2022-10-23T12:46:51.460Z,98151.66
2022-10-23T12:47:53.988Z,98149.34
2022-10-23T12:48:59.299Z,98152.50
2022-10-23T12:50:00.761Z,98149.75
2022-10-23T12:51:02.371Z,98144.00
2022-10-23T12:52:17.352Z,98142.41
2022-10-23T12:53:21.332Z,98136.72
2022-10-23T12:54:22.912Z,98134.88
2022-10-23T12:55:26.555Z,98132.53
2022-10-23T12:56:35.360Z,98124.84
2022-10-23T12:57:46.739Z,98127.09
2022-10-23T12:59:00.625Z,98129.53
2022-10-23T13:00:10.429Z,98127.59
2022-10-23T13:01:24.938Z,98129.53
2022-10-23T13:02:29.327Z,98127.28
2022-10-23T13:03:33.175Z,98131.44
2022-10-23T13:04:35.365Z,98128.03
2022-10-23T13:05:37.785Z,98132.28